Jp Tsubaki — JD2817 — position and weather

sailwx.info

Track history (hours):
 
Tides and Currents Weather Stations Pressure Air Temp Water Temp Dewpoint Dewpoint Depression Visibility Wind Speed Wind Dir Waves Ship Positions

Jp Tsubaki

Last reported at 2014-Sep-17 15:32 UTC. Time now 2014-Sep-17 15:38 UTC.
Position N 35°24' E 139°39'.

Length 115 m; draft 4.4 m.

Type: Cargo ship. MMSI: 431000734.

Date/timePositionNaut miles runAvg speedWind from/ knotsBaromVisibWave heightAir tempDewpointWater temp
2014-Sep-17 15:32N 35°24' E 139°39'0 0.0
2014-Sep-17 14:32N 35°24' E 139°39'2 2.2
2014-Sep-17 13:33N 35°23' E 139°41'7 7.5
2014-Sep-17 12:33N 35°30' E 139°45'2 1.6
2014-Sep-17 11:33N 35°30' E 139°43'0 0.0
2014-Sep-17 10:32N 35°30' E 139°43'0 0.0
2014-Sep-17 09:32N 35°30' E 139°43'0 0.0
2014-Sep-17 08:32N 35°30' E 139°43'0 0.0
2014-Sep-17 07:32N 35°30' E 139°43'0 0.0
2014-Sep-17 06:32N 35°30' E 139°43'0 0.0
2014-Sep-17 05:32N 35°30' E 139°43'2 2.5
2014-Sep-17 04:33N 35°27' E 139°43'5 4.7
2014-Sep-17 03:33N 35°24' E 139°39'0 0.0
2014-Sep-17 02:32N 35°24' E 139°39'0 0.0
2014-Sep-17 01:32N 35°24' E 139°39'0 0.0
2014-Sep-17 00:32N 35°24' E 139°39'0 0.0
2014-Sep-16 23:32N 35°24' E 139°39'0 0.0
2014-Sep-16 22:32N 35°24' E 139°39'0 0.0
2014-Sep-16 21:32N 35°24' E 139°39'0 0.0
2014-Sep-16 20:32N 35°24' E 139°39'0 0.0
2014-Sep-16 19:32N 35°24' E 139°39'0 0.0
2014-Sep-16 18:32N 35°24' E 139°39'0 0.0
2014-Sep-16 17:32N 35°24' E 139°39'0 0.0
2014-Sep-16 16:32N 35°24' E 139°39'0 0.0
2014-Sep-16 15:32N 35°24' E 139°39'0 0.0
2014-Sep-16 14:32N 35°24' E 139°39'2 2.1
2014-Sep-16 13:33N 35°23' E 139°41'8 8.1
2014-Sep-16 12:33N 35°30' E 139°46'2 2.2
2014-Sep-16 11:32N 35°30' E 139°43'0 0.0
2014-Sep-16 10:32N 35°30' E 139°43'0 0.0
2014-Sep-16 09:32N 35°30' E 139°43'0 0.0
2014-Sep-16 08:32N 35°30' E 139°43'0 0.0
2014-Sep-16 07:32N 35°30' E 139°43'0 0.0
2014-Sep-16 06:32N 35°30' E 139°43'0 0.0
2014-Sep-16 05:32N 35°30' E 139°43'4 4.6
2014-Sep-16 04:33N 35°25' E 139°43'4 3.7
2014-Sep-16 03:32N 35°24' E 139°39'0 0.0
2014-Sep-16 02:32N 35°24' E 139°39'0 0.0
2014-Sep-16 01:32N 35°24' E 139°39'0 0.0
2014-Sep-16 00:32N 35°24' E 139°39'0 0.0
2014-Sep-15 23:32N 35°24' E 139°39'0 0.0
2014-Sep-15 22:32N 35°24' E 139°39'0 0.1
2014-Sep-15 21:29N 35°24' E 139°39'0 0.1
2014-Sep-15 20:32N 35°24' E 139°39'0 0.0
2014-Sep-15 19:32N 35°24' E 139°39'0 0.0
2014-Sep-15 18:32N 35°24' E 139°39'0 0.0
2014-Sep-15 17:32N 35°24' E 139°39'0 0.0
2014-Sep-15 16:32N 35°24' E 139°39'0 0.0
2014-Sep-15 15:32N 35°24' E 139°39'0 0.0
2014-Sep-15 14:32N 35°24' E 139°39'2 2.3
2014-Sep-15 13:34N 35°23' E 139°41'8 7.9
2014-Sep-15 12:34N 35°30' E 139°45'2 2.0
2014-Sep-15 11:33N 35°30' E 139°43'0 0.0
2014-Sep-15 10:33N 35°30' E 139°43'0 0.0
2014-Sep-15 09:33N 35°30' E 139°43'0 0.0
2014-Sep-15 08:33N 35°30' E 139°43'0 0.0
2014-Sep-15 07:33N 35°30' E 139°43'0 0.0
2014-Sep-15 06:33N 35°30' E 139°43'0 0.0
2014-Sep-15 05:33N 35°30' E 139°43'3 3.1
2014-Sep-15 04:33N 35°27' E 139°43'5 4.7
2014-Sep-15 03:33N 35°24' E 139°39'0 0.0
2014-Sep-15 02:33N 35°24' E 139°39'0 0.0
2014-Sep-15 01:33N 35°24' E 139°39'0 0.0
2014-Sep-15 00:33N 35°24' E 139°39'0 0.0
2014-Sep-14 23:33N 35°24' E 139°39'0 0.0
2014-Sep-14 22:33N 35°24' E 139°39'0 0.1
2014-Sep-14 21:33N 35°24' E 139°38'0 0.1
2014-Sep-14 20:33N 35°24' E 139°39'0 0.0
2014-Sep-14 19:33N 35°24' E 139°39'0 0.0
2014-Sep-14 18:33N 35°24' E 139°39'0 0.0
2014-Sep-14 17:33N 35°24' E 139°39'0 0.0
2014-Sep-14 16:33N 35°24' E 139°39'0 0.0
2014-Sep-14 15:33N 35°24' E 139°39'0 0.0
2014-Sep-14 14:33N 35°24' E 139°39'0 0.0
2014-Sep-14 13:30N 35°24' E 139°39'0 0.2
2014-Sep-14 12:33N 35°24' E 139°39'0 0.2
2014-Sep-14 11:33N 35°24' E 139°39'0 0.0
2014-Sep-14 10:33N 35°24' E 139°39'0 0.0
2014-Sep-14 09:30N 35°24' E 139°39'0 0.0
2014-Sep-14 08:33N 35°24' E 139°39'0 0.0
2014-Sep-14 07:33N 35°24' E 139°39'0 0.0
2014-Sep-14 06:33N 35°24' E 139°39'0 0.0
2014-Sep-14 05:33N 35°24' E 139°39'0 0.0
2014-Sep-14 04:33N 35°24' E 139°39'7 6.9
2014-Sep-14 03:33N 35°27' E 139°46'4 3.5
2014-Sep-14 02:33N 35°30' E 139°43'0 0.0
2014-Sep-14 01:33N 35°30' E 139°43'0 0.0
2014-Sep-13 21:33N 35°30' E 139°43'0 0.0
2014-Sep-13 20:33N 35°30' E 139°43'0 0.0
2014-Sep-13 19:33N 35°30' E 139°43'0 0.0
2014-Sep-13 18:33N 35°30' E 139°43'0 0.0
2014-Sep-13 17:33N 35°30' E 139°43'0 0.0
2014-Sep-13 16:33N 35°30' E 139°43'0 0.0
2014-Sep-13 15:33N 35°30' E 139°43'0 0.0
2014-Sep-13 14:33N 35°30' E 139°43'0 0.0
2014-Sep-13 13:33N 35°30' E 139°43'0 0.0
2014-Sep-13 12:33N 35°30' E 139°43'0 0.0
2014-Sep-13 11:33N 35°30' E 139°43'0 0.0
2014-Sep-13 10:33N 35°30' E 139°43'0 0.0
2014-Sep-13 09:33N 35°30' E 139°43'0 0.0
2014-Sep-13 08:33N 35°30' E 139°43'0 0.0
2014-Sep-13 07:33N 35°30' E 139°43'0 0.0
2014-Sep-13 06:33N 35°30' E 139°43'0 0.0
2014-Sep-13 05:33N 35°30' E 139°43'1 1.4
2014-Sep-13 04:34N 35°29' E 139°42'5 5.4
2014-Sep-13 03:33N 35°24' E 139°39'0 0.0
2014-Sep-13 02:33N 35°24' E 139°39'0 0.0
2014-Sep-13 01:33N 35°24' E 139°39'0 0.0
2014-Sep-13 00:33N 35°24' E 139°39'0 0.0
2014-Sep-12 23:33N 35°24' E 139°39'0 0.0
2014-Sep-12 22:33N 35°24' E 139°39'0 0.1
2014-Sep-12 21:33N 35°24' E 139°38'0 0.1
2014-Sep-12 20:33N 35°24' E 139°39'0 0.0
2014-Sep-12 19:33N 35°24' E 139°39'0 0.0
2014-Sep-12 18:33N 35°24' E 139°39'0 0.0
2014-Sep-12 17:33N 35°24' E 139°39'0 0.0
2014-Sep-12 16:33N 35°24' E 139°39'0 0.0
2014-Sep-12 15:33N 35°24' E 139°39'0 0.0
2014-Sep-12 14:33N 35°24' E 139°39'2 1.5
2014-Sep-12 13:34N 35°24' E 139°40'8 8.0
2014-Sep-12 12:34N 35°30' E 139°45'2 1.9
2014-Sep-12 11:31N 35°30' E 139°43'0 0.0
2014-Sep-12 10:31N 35°30' E 139°43'0 0.0
2014-Sep-12 09:31N 35°30' E 139°43'0 0.0
2014-Sep-12 08:31N 35°30' E 139°43'0 0.0
2014-Sep-12 07:31N 35°30' E 139°43'0 0.0
2014-Sep-12 06:28N 35°30' E 139°43'0 0.0
2014-Sep-12 05:31N 35°30' E 139°43'0 0.0
2014-Sep-12 04:31N 35°30' E 139°43'0 0.0
2014-Sep-12 03:31N 35°30' E 139°43'0 0.0
2014-Sep-12 02:31N 35°30' E 139°43'0 0.0
2014-Sep-12 01:28N 35°30' E 139°43'0 0.0
2014-Sep-12 00:31N 35°30' E 139°43'0 0.0
2014-Sep-11 23:33N 35°30' E 139°43'5 5.0
2014-Sep-11 22:33N 35°25' E 139°44'2 1.9
2014-Sep-11 21:32N 35°23' E 139°44'0 0.1
2014-Sep-11 19:29N 35°23' E 139°44'0 0.0
2014-Sep-11 18:32N 35°23' E 139°44'0 0.1
2014-Sep-11 17:32N 35°23' E 139°44'0 0.1
2014-Sep-11 16:32N 35°23' E 139°44'0 0.1
2014-Sep-11 15:26N 35°23' E 139°44'0 0.0
2014-Sep-11 14:26N 35°23' E 139°44'0 0.0
2014-Sep-11 13:33N 35°23' E 139°44'4 4.5
2014-Sep-11 12:33N 35°24' E 139°39'0 0.0
2014-Sep-11 11:17N 35°24' E 139°39'0 0.0
2014-Sep-11 10:22N 35°24' E 139°39'0 0.0
2014-Sep-11 09:28N 35°24' E 139°39'0 0.0
2014-Sep-11 08:26N 35°24' E 139°39'0 0.0
2014-Sep-11 07:29N 35°24' E 139°39'0 0.0
2014-Sep-11 06:32N 35°24' E 139°39'0 0.0
2014-Sep-11 05:31N 35°24' E 139°39'0 0.3
2014-Sep-11 04:33N 35°24' E 139°39'1 1.0
2014-Sep-11 03:33N 35°24' E 139°40'0 0.0
2014-Sep-11 02:22N 35°24' E 139°40'0 0.0
2014-Sep-11 01:22N 35°24' E 139°40'0 0.0
2014-Sep-11 00:28N 35°24' E 139°40'0 0.0
2014-Sep-10 23:31N 35°24' E 139°40'0 0.0
2014-Sep-10 22:28N 35°24' E 139°40'2 2.2
2014-Sep-10 21:34N 35°23' E 139°42'2 1.5
2014-Sep-10 20:31N 35°23' E 139°44'0 0.1
2014-Sep-10 19:28N 35°23' E 139°44'0 0.0
2014-Sep-10 18:31N 35°23' E 139°44'0 0.0
2014-Sep-10 17:31N 35°23' E 139°44'0 0.0
2014-Sep-10 16:31N 35°23' E 139°44'0 0.0
2014-Sep-10 15:31N 35°23' E 139°44'0 0.1
2014-Sep-10 14:31N 35°23' E 139°44'4 3.8
2014-Sep-10 13:33N 35°24' E 139°40'1 0.9
2014-Sep-10 12:32N 35°24' E 139°39'0 0.0
2014-Sep-10 11:32N 35°24' E 139°39'0 0.0
2014-Sep-10 10:32N 35°24' E 139°39'0 0.0
2014-Sep-10 09:29N 35°24' E 139°39'0 0.0
2014-Sep-10 08:29N 35°24' E 139°39'0 0.0
2014-Sep-10 07:32N 35°24' E 139°39'0 0.0
2014-Sep-10 06:29N 35°24' E 139°39'0 0.0
2014-Sep-10 05:32N 35°24' E 139°39'0 0.2
2014-Sep-10 04:33N 35°24' E 139°38'1 1.4
2014-Sep-10 03:33N 35°24' E 139°40'0 0.0
2014-Sep-10 02:34N 35°24' E 139°40'0 0.0
2014-Sep-10 01:30N 35°24' E 139°40'0 0.0
2014-Sep-10 00:34N 35°24' E 139°40'0 0.0
2014-Sep-09 23:34N 35°24' E 139°40'0 0.0
2014-Sep-09 22:31N 35°24' E 139°40'1 1.5
2014-Sep-09 21:33N 35°23' E 139°41'3 2.9
2014-Sep-09 20:33N 35°21' E 139°44'0 0.1
2014-Sep-09 19:32N 35°21' E 139°44'0 0.1
2014-Sep-09 18:32N 35°22' E 139°44'0 0.0
2014-Sep-09 17:32N 35°22' E 139°44'0 0.0
2014-Sep-09 16:32N 35°22' E 139°44'0 0.0
2014-Sep-09 15:32N 35°22' E 139°44'0 0.1
2014-Sep-09 14:32N 35°22' E 139°44'0 0.1
2014-Sep-09 13:33N 35°22' E 139°44'5 5.1
2014-Sep-09 12:33N 35°24' E 139°39'0 0.0
2014-Sep-09 11:33N 35°24' E 139°39'0 0.0
2014-Sep-09 10:33N 35°24' E 139°39'0 0.0
2014-Sep-09 09:33N 35°24' E 139°39'0 0.0
2014-Sep-09 08:33N 35°24' E 139°39'0 0.0
2014-Sep-09 07:33N 35°24' E 139°39'0 0.2
2014-Sep-09 06:34N 35°24' E 139°38'9 9.1
2014-Sep-09 05:34N 35°27' E 139°49'1 1.0
2014-Sep-09 04:33N 35°26' E 139°50'0 0.0
2014-Sep-09 03:30N 35°26' E 139°50'0 0.1
2014-Sep-09 02:33N 35°26' E 139°50'0 0.0
2014-Sep-09 01:33N 35°26' E 139°50'0 0.0
2014-Sep-09 00:33N 35°26' E 139°50'0 0.0
2014-Sep-08 23:33N 35°26' E 139°50'0 0.0
2014-Sep-08 22:33N 35°26' E 139°50'0 0.0
2014-Sep-08 21:33N 35°26' E 139°50'0 0.0
2014-Sep-08 20:33N 35°26' E 139°50'0 0.0
2014-Sep-08 19:33N 35°26' E 139°50'0 0.0
2014-Sep-08 18:30N 35°26' E 139°50'0 0.0
2014-Sep-08 17:30N 35°26' E 139°50'0 0.1
2014-Sep-08 16:33N 35°26' E 139°50'0 0.0
2014-Sep-08 15:33N 35°26' E 139°50'0 0.0
2014-Sep-08 14:33N 35°26' E 139°50'0 0.0
2014-Sep-08 13:33N 35°26' E 139°50'0 0.0
2014-Sep-08 12:27N 35°26' E 139°50'0 0.2
2014-Sep-08 11:33N 35°26' E 139°50'8 8.3
2014-Sep-08 10:33N 35°24' E 139°40'0 0.4
2014-Sep-08 09:33N 35°24' E 139°40'0 0.0
2014-Sep-08 08:33N 35°24' E 139°40'0 0.0
2014-Sep-08 07:33N 35°24' E 139°40'0 0.0
2014-Sep-08 06:33N 35°24' E 139°40'0 0.0
2014-Sep-08 05:33N 35°24' E 139°40'0 0.0
2014-Sep-08 04:33N 35°24' E 139°40'1 1.2
2014-Sep-08 03:33N 35°24' E 139°39'0 0.0
2014-Sep-08 02:33N 35°24' E 139°39'0 0.0
2014-Sep-08 01:33N 35°24' E 139°39'0 0.0
2014-Sep-08 00:33N 35°24' E 139°39'0 0.0
2014-Sep-07 23:33N 35°24' E 139°39'0 0.0
2014-Sep-07 22:27N 35°24' E 139°39'0 0.1
2014-Sep-07 21:33N 35°24' E 139°38'0 0.1
2014-Sep-07 20:33N 35°24' E 139°39'0 0.0
2014-Sep-07 19:33N 35°24' E 139°39'0 0.0
2014-Sep-07 18:33N 35°24' E 139°39'0 0.0
2014-Sep-07 17:33N 35°24' E 139°39'0 0.0
2014-Sep-07 16:33N 35°24' E 139°39'0 0.0
2014-Sep-07 15:33N 35°24' E 139°39'  
Track history (hours):
 
Tides and Currents Weather Stations Pressure Air Temp Water Temp Dewpoint Dewpoint Depression Visibility Wind Speed Wind Dir Waves Ship Positions

Jp Tsubaki

Last reported at 2014-Sep-17 15:32 UTC. Time now 2014-Sep-17 15:38 UTC.
Position N 35°24' E 139°39'.

Length 115 m; draft 4.4 m.

Type: Cargo ship. MMSI: 431000734.

Date/timePositionNaut miles runAvg speedWind from/ knotsBaromVisibWave heightAir tempDewpointWater temp
2014-Sep-17 15:32N 35°24' E 139°39'0 0.0
2014-Sep-17 14:32N 35°24' E 139°39'2 2.2
2014-Sep-17 13:33N 35°23' E 139°41'7 7.5
2014-Sep-17 12:33N 35°30' E 139°45'2 1.6
2014-Sep-17 11:33N 35°30' E 139°43'0 0.0
2014-Sep-17 10:32N 35°30' E 139°43'0 0.0
2014-Sep-17 09:32N 35°30' E 139°43'0 0.0
2014-Sep-17 08:32N 35°30' E 139°43'0 0.0
2014-Sep-17 07:32N 35°30' E 139°43'0 0.0
2014-Sep-17 06:32N 35°30' E 139°43'0 0.0
2014-Sep-17 05:32N 35°30' E 139°43'2 2.5
2014-Sep-17 04:33N 35°27' E 139°43'5 4.7
2014-Sep-17 03:33N 35°24' E 139°39'0 0.0
2014-Sep-17 02:32N 35°24' E 139°39'0 0.0
2014-Sep-17 01:32N 35°24' E 139°39'0 0.0
2014-Sep-17 00:32N 35°24' E 139°39'0 0.0
2014-Sep-16 23:32N 35°24' E 139°39'0 0.0
2014-Sep-16 22:32N 35°24' E 139°39'0 0.0
2014-Sep-16 21:32N 35°24' E 139°39'0 0.0
2014-Sep-16 20:32N 35°24' E 139°39'0 0.0
2014-Sep-16 19:32N 35°24' E 139°39'0 0.0
2014-Sep-16 18:32N 35°24' E 139°39'0 0.0
2014-Sep-16 17:32N 35°24' E 139°39'0 0.0
2014-Sep-16 16:32N 35°24' E 139°39'0 0.0
2014-Sep-16 15:32N 35°24' E 139°39'0 0.0
2014-Sep-16 14:32N 35°24' E 139°39'2 2.1
2014-Sep-16 13:33N 35°23' E 139°41'8 8.1
2014-Sep-16 12:33N 35°30' E 139°46'2 2.2
2014-Sep-16 11:32N 35°30' E 139°43'0 0.0
2014-Sep-16 10:32N 35°30' E 139°43'0 0.0
2014-Sep-16 09:32N 35°30' E 139°43'0 0.0
2014-Sep-16 08:32N 35°30' E 139°43'0 0.0
2014-Sep-16 07:32N 35°30' E 139°43'0 0.0
2014-Sep-16 06:32N 35°30' E 139°43'0 0.0
2014-Sep-16 05:32N 35°30' E 139°43'4 4.6
2014-Sep-16 04:33N 35°25' E 139°43'4 3.7
2014-Sep-16 03:32N 35°24' E 139°39'0 0.0
2014-Sep-16 02:32N 35°24' E 139°39'0 0.0
2014-Sep-16 01:32N 35°24' E 139°39'0 0.0
2014-Sep-16 00:32N 35°24' E 139°39'0 0.0
2014-Sep-15 23:32N 35°24' E 139°39'0 0.0
2014-Sep-15 22:32N 35°24' E 139°39'0 0.1
2014-Sep-15 21:29N 35°24' E 139°39'0 0.1
2014-Sep-15 20:32N 35°24' E 139°39'0 0.0
2014-Sep-15 19:32N 35°24' E 139°39'0 0.0
2014-Sep-15 18:32N 35°24' E 139°39'0 0.0
2014-Sep-15 17:32N 35°24' E 139°39'0 0.0
2014-Sep-15 16:32N 35°24' E 139°39'0 0.0
2014-Sep-15 15:32N 35°24' E 139°39'0 0.0
2014-Sep-15 14:32N 35°24' E 139°39'2 2.3
2014-Sep-15 13:34N 35°23' E 139°41'8 7.9
2014-Sep-15 12:34N 35°30' E 139°45'2 2.0
2014-Sep-15 11:33N 35°30' E 139°43'0 0.0
2014-Sep-15 10:33N 35°30' E 139°43'0 0.0
2014-Sep-15 09:33N 35°30' E 139°43'0 0.0
2014-Sep-15 08:33N 35°30' E 139°43'0 0.0
2014-Sep-15 07:33N 35°30' E 139°43'0 0.0
2014-Sep-15 06:33N 35°30' E 139°43'0 0.0
2014-Sep-15 05:33N 35°30' E 139°43'3 3.1
2014-Sep-15 04:33N 35°27' E 139°43'5 4.7
2014-Sep-15 03:33N 35°24' E 139°39'0 0.0
2014-Sep-15 02:33N 35°24' E 139°39'0 0.0
2014-Sep-15 01:33N 35°24' E 139°39'0 0.0
2014-Sep-15 00:33N 35°24' E 139°39'0 0.0
2014-Sep-14 23:33N 35°24' E 139°39'0 0.0
2014-Sep-14 22:33N 35°24' E 139°39'0 0.1
2014-Sep-14 21:33N 35°24' E 139°38'0 0.1
2014-Sep-14 20:33N 35°24' E 139°39'0 0.0
2014-Sep-14 19:33N 35°24' E 139°39'0 0.0
2014-Sep-14 18:33N 35°24' E 139°39'0 0.0
2014-Sep-14 17:33N 35°24' E 139°39'0 0.0
2014-Sep-14 16:33N 35°24' E 139°39'0 0.0
2014-Sep-14 15:33N 35°24' E 139°39'0 0.0
2014-Sep-14 14:33N 35°24' E 139°39'0 0.0
2014-Sep-14 13:30N 35°24' E 139°39'0 0.2
2014-Sep-14 12:33N 35°24' E 139°39'0 0.2
2014-Sep-14 11:33N 35°24' E 139°39'0 0.0
2014-Sep-14 10:33N 35°24' E 139°39'0 0.0
2014-Sep-14 09:30N 35°24' E 139°39'0 0.0
2014-Sep-14 08:33N 35°24' E 139°39'0 0.0
2014-Sep-14 07:33N 35°24' E 139°39'0 0.0
2014-Sep-14 06:33N 35°24' E 139°39'0 0.0
2014-Sep-14 05:33N 35°24' E 139°39'0 0.0
2014-Sep-14 04:33N 35°24' E 139°39'7 6.9
2014-Sep-14 03:33N 35°27' E 139°46'4 3.5
2014-Sep-14 02:33N 35°30' E 139°43'0 0.0
2014-Sep-14 01:33N 35°30' E 139°43'0 0.0
2014-Sep-13 21:33N 35°30' E 139°43'0 0.0
2014-Sep-13 20:33N 35°30' E 139°43'0 0.0
2014-Sep-13 19:33N 35°30' E 139°43'0 0.0
2014-Sep-13 18:33N 35°30' E 139°43'0 0.0
2014-Sep-13 17:33N 35°30' E 139°43'0 0.0
2014-Sep-13 16:33N 35°30' E 139°43'0 0.0
2014-Sep-13 15:33N 35°30' E 139°43'0 0.0
2014-Sep-13 14:33N 35°30' E 139°43'0 0.0
2014-Sep-13 13:33N 35°30' E 139°43'0 0.0
2014-Sep-13 12:33N 35°30' E 139°43'0 0.0
2014-Sep-13 11:33N 35°30' E 139°43'0 0.0
2014-Sep-13 10:33N 35°30' E 139°43'0 0.0
2014-Sep-13 09:33N 35°30' E 139°43'0 0.0
2014-Sep-13 08:33N 35°30' E 139°43'0 0.0
2014-Sep-13 07:33N 35°30' E 139°43'0 0.0
2014-Sep-13 06:33N 35°30' E 139°43'0 0.0
2014-Sep-13 05:33N 35°30' E 139°43'1 1.4
2014-Sep-13 04:34N 35°29' E 139°42'5 5.4
2014-Sep-13 03:33N 35°24' E 139°39'0 0.0
2014-Sep-13 02:33N 35°24' E 139°39'0 0.0
2014-Sep-13 01:33N 35°24' E 139°39'0 0.0
2014-Sep-13 00:33N 35°24' E 139°39'0 0.0
2014-Sep-12 23:33N 35°24' E 139°39'0 0.0
2014-Sep-12 22:33N 35°24' E 139°39'0 0.1
2014-Sep-12 21:33N 35°24' E 139°38'0 0.1
2014-Sep-12 20:33N 35°24' E 139°39'0 0.0
2014-Sep-12 19:33N 35°24' E 139°39'0 0.0
2014-Sep-12 18:33N 35°24' E 139°39'0 0.0
2014-Sep-12 17:33N 35°24' E 139°39'0 0.0
2014-Sep-12 16:33N 35°24' E 139°39'0 0.0
2014-Sep-12 15:33N 35°24' E 139°39'0 0.0
2014-Sep-12 14:33N 35°24' E 139°39'2 1.5
2014-Sep-12 13:34N 35°24' E 139°40'8 8.0
2014-Sep-12 12:34N 35°30' E 139°45'2 1.9
2014-Sep-12 11:31N 35°30' E 139°43'0 0.0
2014-Sep-12 10:31N 35°30' E 139°43'0 0.0
2014-Sep-12 09:31N 35°30' E 139°43'0 0.0
2014-Sep-12 08:31N 35°30' E 139°43'0 0.0
2014-Sep-12 07:31N 35°30' E 139°43'0 0.0
2014-Sep-12 06:28N 35°30' E 139°43'0 0.0
2014-Sep-12 05:31N 35°30' E 139°43'0 0.0
2014-Sep-12 04:31N 35°30' E 139°43'0 0.0
2014-Sep-12 03:31N 35°30' E 139°43'0 0.0
2014-Sep-12 02:31N 35°30' E 139°43'0 0.0
2014-Sep-12 01:28N 35°30' E 139°43'0 0.0
2014-Sep-12 00:31N 35°30' E 139°43'0 0.0
2014-Sep-11 23:33N 35°30' E 139°43'5 5.0
2014-Sep-11 22:33N 35°25' E 139°44'2 1.9
2014-Sep-11 21:32N 35°23' E 139°44'0 0.1
2014-Sep-11 19:29N 35°23' E 139°44'0 0.0
2014-Sep-11 18:32N 35°23' E 139°44'0 0.1
2014-Sep-11 17:32N 35°23' E 139°44'0 0.1
2014-Sep-11 16:32N 35°23' E 139°44'0 0.1
2014-Sep-11 15:26N 35°23' E 139°44'0 0.0
2014-Sep-11 14:26N 35°23' E 139°44'0 0.0
2014-Sep-11 13:33N 35°23' E 139°44'4 4.5
2014-Sep-11 12:33N 35°24' E 139°39'0 0.0
2014-Sep-11 11:17N 35°24' E 139°39'0 0.0
2014-Sep-11 10:22N 35°24' E 139°39'0 0.0
2014-Sep-11 09:28N 35°24' E 139°39'0 0.0
2014-Sep-11 08:26N 35°24' E 139°39'0 0.0
2014-Sep-11 07:29N 35°24' E 139°39'0 0.0
2014-Sep-11 06:32N 35°24' E 139°39'0 0.0
2014-Sep-11 05:31N 35°24' E 139°39'0 0.3
2014-Sep-11 04:33N 35°24' E 139°39'1 1.0
2014-Sep-11 03:33N 35°24' E 139°40'0 0.0
2014-Sep-11 02:22N 35°24' E 139°40'0 0.0
2014-Sep-11 01:22N 35°24' E 139°40'0 0.0
2014-Sep-11 00:28N 35°24' E 139°40'0 0.0
2014-Sep-10 23:31N 35°24' E 139°40'0 0.0
2014-Sep-10 22:28N 35°24' E 139°40'2 2.2
2014-Sep-10 21:34N 35°23' E 139°42'2 1.5
2014-Sep-10 20:31N 35°23' E 139°44'0 0.1
2014-Sep-10 19:28N 35°23' E 139°44'0 0.0
2014-Sep-10 18:31N 35°23' E 139°44'0 0.0
2014-Sep-10 17:31N 35°23' E 139°44'0 0.0
2014-Sep-10 16:31N 35°23' E 139°44'0 0.0
2014-Sep-10 15:31N 35°23' E 139°44'0 0.1
2014-Sep-10 14:31N 35°23' E 139°44'4 3.8
2014-Sep-10 13:33N 35°24' E 139°40'1 0.9
2014-Sep-10 12:32N 35°24' E 139°39'0 0.0
2014-Sep-10 11:32N 35°24' E 139°39'0 0.0
2014-Sep-10 10:32N 35°24' E 139°39'0 0.0
2014-Sep-10 09:29N 35°24' E 139°39'0 0.0
2014-Sep-10 08:29N 35°24' E 139°39'0 0.0
2014-Sep-10 07:32N 35°24' E 139°39'0 0.0
2014-Sep-10 06:29N 35°24' E 139°39'0 0.0
2014-Sep-10 05:32N 35°24' E 139°39'0 0.2
2014-Sep-10 04:33N 35°24' E 139°38'1 1.4
2014-Sep-10 03:33N 35°24' E 139°40'0 0.0
2014-Sep-10 02:34N 35°24' E 139°40'0 0.0
2014-Sep-10 01:30N 35°24' E 139°40'0 0.0
2014-Sep-10 00:34N 35°24' E 139°40'0 0.0
2014-Sep-09 23:34N 35°24' E 139°40'0 0.0
2014-Sep-09 22:31N 35°24' E 139°40'1 1.5
2014-Sep-09 21:33N 35°23' E 139°41'3 2.9
2014-Sep-09 20:33N 35°21' E 139°44'0 0.1
2014-Sep-09 19:32N 35°21' E 139°44'0 0.1
2014-Sep-09 18:32N 35°22' E 139°44'0 0.0
2014-Sep-09 17:32N 35°22' E 139°44'0 0.0
2014-Sep-09 16:32N 35°22' E 139°44'0 0.0
2014-Sep-09 15:32N 35°22' E 139°44'0 0.1
2014-Sep-09 14:32N 35°22' E 139°44'0 0.1
2014-Sep-09 13:33N 35°22' E 139°44'5 5.1
2014-Sep-09 12:33N 35°24' E 139°39'0 0.0
2014-Sep-09 11:33N 35°24' E 139°39'0 0.0
2014-Sep-09 10:33N 35°24' E 139°39'0 0.0
2014-Sep-09 09:33N 35°24' E 139°39'0 0.0
2014-Sep-09 08:33N 35°24' E 139°39'0 0.0
2014-Sep-09 07:33N 35°24' E 139°39'0 0.2
2014-Sep-09 06:34N 35°24' E 139°38'9 9.1
2014-Sep-09 05:34N 35°27' E 139°49'1 1.0
2014-Sep-09 04:33N 35°26' E 139°50'0 0.0
2014-Sep-09 03:30N 35°26' E 139°50'0 0.1
2014-Sep-09 02:33N 35°26' E 139°50'0 0.0
2014-Sep-09 01:33N 35°26' E 139°50'0 0.0
2014-Sep-09 00:33N 35°26' E 139°50'0 0.0
2014-Sep-08 23:33N 35°26' E 139°50'0 0.0
2014-Sep-08 22:33N 35°26' E 139°50'0 0.0
2014-Sep-08 21:33N 35°26' E 139°50'0 0.0
2014-Sep-08 20:33N 35°26' E 139°50'0 0.0
2014-Sep-08 19:33N 35°26' E 139°50'0 0.0
2014-Sep-08 18:30N 35°26' E 139°50'0 0.0
2014-Sep-08 17:30N 35°26' E 139°50'0 0.1
2014-Sep-08 16:33N 35°26' E 139°50'0 0.0
2014-Sep-08 15:33N 35°26' E 139°50'0 0.0
2014-Sep-08 14:33N 35°26' E 139°50'0 0.0
2014-Sep-08 13:33N 35°26' E 139°50'0 0.0
2014-Sep-08 12:27N 35°26' E 139°50'0 0.2
2014-Sep-08 11:33N 35°26' E 139°50'8 8.3
2014-Sep-08 10:33N 35°24' E 139°40'0 0.4
2014-Sep-08 09:33N 35°24' E 139°40'0 0.0
2014-Sep-08 08:33N 35°24' E 139°40'0 0.0
2014-Sep-08 07:33N 35°24' E 139°40'0 0.0
2014-Sep-08 06:33N 35°24' E 139°40'0 0.0
2014-Sep-08 05:33N 35°24' E 139°40'0 0.0
2014-Sep-08 04:33N 35°24' E 139°40'1 1.2
2014-Sep-08 03:33N 35°24' E 139°39'0 0.0
2014-Sep-08 02:33N 35°24' E 139°39'0 0.0
2014-Sep-08 01:33N 35°24' E 139°39'0 0.0
2014-Sep-08 00:33N 35°24' E 139°39'0 0.0
2014-Sep-07 23:33N 35°24' E 139°39'0 0.0
2014-Sep-07 22:27N 35°24' E 139°39'0 0.1
2014-Sep-07 21:33N 35°24' E 139°38'0 0.1
2014-Sep-07 20:33N 35°24' E 139°39'0 0.0
2014-Sep-07 19:33N 35°24' E 139°39'0 0.0
2014-Sep-07 18:33N 35°24' E 139°39'0 0.0
2014-Sep-07 17:33N 35°24' E 139°39'0 0.0
2014-Sep-07 16:33N 35°24' E 139°39'0 0.0
2014-Sep-07 15:33N 35°24' E 139°39'  

Dump ship's entire track history